createdAt,value
2023-04-02T00:01:01.363Z,8.95
2023-04-02T00:03:53.405Z,8.96
2023-04-02T00:06:44.892Z,8.87
2023-04-02T00:09:33.091Z,8.92
2023-04-02T00:12:19.561Z,8.90
2023-04-02T00:15:04.585Z,8.87
2023-04-02T00:17:49.495Z,8.80
2023-04-02T00:20:40.660Z,8.81
2023-04-02T00:23:26.449Z,8.82
2023-04-02T00:26:21.730Z,8.82
2023-04-02T00:29:07.485Z,8.77
2023-04-02T00:31:54.266Z,8.87
2023-04-02T00:34:39.580Z,8.88
2023-04-02T00:37:38.498Z,8.82
2023-04-02T00:40:29.206Z,8.81
2023-04-02T00:43:18.739Z,8.74
2023-04-02T00:46:10.795Z,8.81
2023-04-02T00:49:14.739Z,8.76
2023-04-02T00:52:04.339Z,8.76
2023-04-02T00:55:00.900Z,8.81
2023-04-02T00:57:46.445Z,8.79
2023-04-02T01:00:37.392Z,8.80
2023-04-02T01:03:28.918Z,8.77
2023-04-02T01:06:18.692Z,8.72
2023-04-02T01:09:17.047Z,8.81
2023-04-02T01:12:29.604Z,8.78
2023-04-02T01:15:21.512Z,8.80
2023-04-02T01:18:33.332Z,8.79
2023-04-02T01:21:34.507Z,8.93
2023-04-02T01:24:21.198Z,8.99
2023-04-02T01:27:14.206Z,9.06
2023-04-02T01:30:01.519Z,9.06
2023-04-02T01:32:47.264Z,9.00
2023-04-02T01:35:38.764Z,9.05
2023-04-02T01:38:31.941Z,9.03
2023-04-02T01:41:26.940Z,8.76
2023-04-02T01:44:17.748Z,8.52
2023-04-02T01:47:05.421Z,8.41
2023-04-02T01:49:56.711Z,8.22
2023-04-02T01:52:44.996Z,8.36
2023-04-02T01:55:32.664Z,8.29
2023-04-02T01:58:27.197Z,7.95
2023-04-02T02:01:16.364Z,8.15
2023-04-02T02:04:01.926Z,7.95
2023-04-02T02:06:47.182Z,8.13
2023-04-02T02:09:35.360Z,8.00
2023-04-02T02:12:20.195Z,7.98
2023-04-02T02:15:14.497Z,7.90
2023-04-02T02:18:04.407Z,7.87
2023-04-02T02:20:51.590Z,7.68
2023-04-02T02:23:36.909Z,7.83
2023-04-02T02:26:26.296Z,7.70
2023-04-02T02:29:16.967Z,7.73
2023-04-02T02:32:03.991Z,7.72
2023-04-02T02:34:56.313Z,7.59
2023-04-02T02:37:46.327Z,7.70
2023-04-02T02:40:38.669Z,7.83
2023-04-02T02:43:24.489Z,7.59
2023-04-02T02:46:16.512Z,7.70
2023-04-02T02:49:04.523Z,7.54
2023-04-02T02:52:06.434Z,7.70
2023-04-02T02:55:00.990Z,7.71
2023-04-02T02:57:52.245Z,7.63
2023-04-02T03:00:39.038Z,7.65
2023-04-02T03:03:28.827Z,7.78
2023-04-02T03:06:20.471Z,7.39
2023-04-02T03:09:28.776Z,7.73
2023-04-02T03:12:36.465Z,7.76
2023-04-02T03:15:39.837Z,7.56
2023-04-02T03:18:35.165Z,7.55
2023-04-02T03:21:51.644Z,7.61
2023-04-02T03:24:55.848Z,7.55
2023-04-02T03:27:46.463Z,7.45
2023-04-02T03:30:41.318Z,7.41
2023-04-02T03:33:35.707Z,7.55
2023-04-02T03:36:32.778Z,7.41
2023-04-02T03:39:28.498Z,7.43
2023-04-02T03:42:20.442Z,7.42
2023-04-02T03:45:15.675Z,7.32
2023-04-02T03:48:18.365Z,7.34
2023-04-02T03:51:12.145Z,7.33
2023-04-02T03:53:57.196Z,7.31
2023-04-02T03:56:47.138Z,7.33
2023-04-02T03:59:42.589Z,7.32
2023-04-02T04:02:39.727Z,7.19
2023-04-02T04:05:29.688Z,7.16
2023-04-02T04:08:32.718Z,7.15
2023-04-02T04:11:22.646Z,7.13
2023-04-02T04:14:16.474Z,7.20
2023-04-02T04:17:09.229Z,6.93
2023-04-02T04:20:08.062Z,7.12
2023-04-02T04:22:55.824Z,6.95
2023-04-02T04:25:41.233Z,7.01
2023-04-02T04:28:49.825Z,7.01
2023-04-02T04:31:38.864Z,6.97
2023-04-02T04:34:56.938Z,6.88
2023-04-02T04:37:49.403Z,6.87
2023-04-02T04:40:41.713Z,6.80
2023-04-02T04:43:52.635Z,6.55
2023-04-02T04:46:46.709Z,6.71
2023-04-02T04:49:40.271Z,6.70
2023-04-02T04:52:34.220Z,6.63
2023-04-02T04:55:27.670Z,6.35
2023-04-02T04:58:29.751Z,6.51
2023-04-02T05:01:46.297Z,6.34
2023-04-02T05:04:36.135Z,6.37
2023-04-02T05:07:43.074Z,6.46
2023-04-02T05:10:43.922Z,6.53
2023-04-02T05:13:40.251Z,6.33
2023-04-02T05:16:43.161Z,6.30
2023-04-02T05:19:41.800Z,6.38
2023-04-02T05:22:48.446Z,6.19
2023-04-02T05:25:33.848Z,6.34
2023-04-02T05:28:26.450Z,6.36
2023-04-02T05:31:26.129Z,6.34
2023-04-02T05:34:12.343Z,6.40
2023-04-02T05:36:58.319Z,6.42
2023-04-02T05:39:45.618Z,6.25
2023-04-02T05:42:35.191Z,6.31
2023-04-02T05:45:32.241Z,6.26
2023-04-02T05:48:20.894Z,6.26
2023-04-02T05:51:12.003Z,6.06
2023-04-02T05:54:00.106Z,6.17
2023-04-02T05:56:48.492Z,5.97
2023-04-02T05:59:46.009Z,5.93
2023-04-02T06:02:45.106Z,5.89
2023-04-02T06:05:36.828Z,6.14
2023-04-02T06:08:29.699Z,6.02
2023-04-02T06:11:28.558Z,5.88
2023-04-02T06:14:16.135Z,6.07
2023-04-02T06:17:01.071Z,6.09
2023-04-02T06:19:47.864Z,6.03
2023-04-02T06:22:37.758Z,6.14
2023-04-02T06:25:42.822Z,6.11
2023-04-02T06:28:36.055Z,6.12
2023-04-02T06:31:36.123Z,5.85
2023-04-02T06:34:24.289Z,6.04
2023-04-02T06:37:19.432Z,5.97
2023-04-02T06:40:17.219Z,5.83
2023-04-02T06:43:13.127Z,5.83
2023-04-02T06:46:01.128Z,5.96
2023-04-02T06:48:50.450Z,6.06
2023-04-02T06:51:37.115Z,5.89
2023-04-02T06:54:22.022Z,5.97
2023-04-02T06:57:08.163Z,5.61
2023-04-02T06:59:53.439Z,5.86
2023-04-02T07:02:39.681Z,5.91
2023-04-02T07:05:24.484Z,5.68
2023-04-02T07:08:09.652Z,5.74
2023-04-02T07:10:56.092Z,5.79
2023-04-02T07:13:41.180Z,5.97
2023-04-02T07:16:29.204Z,5.99
2023-04-02T07:19:22.783Z,6.12
2023-04-02T07:22:08.069Z,5.98
2023-04-02T07:24:53.377Z,6.27
2023-04-02T07:27:38.480Z,6.14
2023-04-02T07:30:23.713Z,5.98
2023-04-02T07:33:13.860Z,5.56
2023-04-02T07:35:58.959Z,5.68
2023-04-02T07:38:44.031Z,5.80
2023-04-02T07:41:29.205Z,6.05
2023-04-02T07:44:14.873Z,5.99
2023-04-02T07:46:59.775Z,5.45
2023-04-02T07:49:44.745Z,5.41
2023-04-02T07:52:29.508Z,5.80
2023-04-02T07:55:16.045Z,5.72
2023-04-02T07:58:01.726Z,5.36
2023-04-02T08:00:46.641Z,5.70
2023-04-02T08:03:32.755Z,5.32
2023-04-02T08:06:18.138Z,5.79
2023-04-02T08:09:03.634Z,5.58
2023-04-02T08:11:48.728Z,5.86
2023-04-02T08:14:33.624Z,5.70
2023-04-02T08:17:18.731Z,5.30
2023-04-02T08:20:05.442Z,5.75
2023-04-02T08:22:50.529Z,5.64
2023-04-02T08:25:35.748Z,5.38
2023-04-02T08:28:21.185Z,5.49
2023-04-02T08:31:08.857Z,5.63
2023-04-02T08:33:54.078Z,5.68
2023-04-02T08:36:43.229Z,5.89
2023-04-02T08:39:32.905Z,5.76
2023-04-02T08:43:03.176Z,5.75
2023-04-02T08:46:14.445Z,5.99
2023-04-02T08:49:03.576Z,5.96
2023-04-02T08:51:49.045Z,6.09
2023-04-02T08:54:39.156Z,5.89
2023-04-02T08:57:33.855Z,5.98
2023-04-02T09:00:18.622Z,5.54
2023-04-02T09:03:13.358Z,5.65
2023-04-02T09:05:59.589Z,5.50
2023-04-02T09:08:47.673Z,5.82
2023-04-02T09:11:47.333Z,5.51
2023-04-02T09:14:45.116Z,5.65
2023-04-02T09:17:36.943Z,5.46
2023-04-02T09:20:29.003Z,5.97
2023-04-02T09:23:21.413Z,5.97
2023-04-02T09:26:21.932Z,5.48
2023-04-02T09:29:13.195Z,5.48
2023-04-02T09:32:08.525Z,5.93
2023-04-02T09:35:26.651Z,6.02
2023-04-02T09:38:32.721Z,5.93
2023-04-02T09:41:21.070Z,5.73
2023-04-02T09:44:32.347Z,5.79
2023-04-02T09:47:26.202Z,5.80
2023-04-02T09:50:29.808Z,5.95
2023-04-02T09:53:35.419Z,6.03
2023-04-02T09:56:25.514Z,6.11
2023-04-02T09:59:13.256Z,5.80
2023-04-02T10:02:01.757Z,6.07
2023-04-02T10:04:49.349Z,5.74
2023-04-02T10:07:45.830Z,6.20
2023-04-02T10:10:44.850Z,6.25
2023-04-02T10:13:41.174Z,6.35
2023-04-02T10:16:33.078Z,5.98
2023-04-02T10:19:28.276Z,6.08
2023-04-02T10:22:16.464Z,6.07
2023-04-02T10:25:01.611Z,6.06
2023-04-02T10:28:34.535Z,6.33
2023-04-02T10:31:35.588Z,5.93
2023-04-02T10:34:33.945Z,6.13
2023-04-02T10:37:50.047Z,5.90
2023-04-02T10:40:39.782Z,5.86
2023-04-02T10:43:37.068Z,6.35
2023-04-02T10:46:48.355Z,6.66
2023-04-02T10:49:44.501Z,6.77
2023-04-02T10:52:34.310Z,6.71
2023-04-02T10:55:25.345Z,6.19
2023-04-02T10:58:23.478Z,6.52
2023-04-02T11:01:17.074Z,6.67
2023-04-02T11:04:08.060Z,5.99
2023-04-02T11:07:07.049Z,6.26
2023-04-02T11:09:58.630Z,6.23
2023-04-02T11:12:50.448Z,6.32
2023-04-02T11:15:37.393Z,6.24
2023-04-02T11:18:29.523Z,6.47
2023-04-02T11:21:29.770Z,6.41
2023-04-02T11:24:32.759Z,6.23
2023-04-02T11:27:24.272Z,6.41
2023-04-02T11:30:26.980Z,6.32
2023-04-02T11:36:55.325Z,6.45
2023-04-02T11:39:53.219Z,6.44
2023-04-02T11:42:40.402Z,6.58
2023-04-02T11:45:28.412Z,6.70
2023-04-02T11:48:13.238Z,6.70
2023-04-02T11:50:58.556Z,6.70
2023-04-02T11:53:43.725Z,7.06
2023-04-02T11:56:43.011Z,6.64
2023-04-02T11:59:40.152Z,6.70
2023-04-02T12:02:52.017Z,6.77
2023-04-02T12:05:43.036Z,6.90
2023-04-02T12:08:57.092Z,6.99
2023-04-02T12:11:43.524Z,6.91
2023-04-02T12:14:43.003Z,7.04
2023-04-02T12:17:37.096Z,7.16
2023-04-02T12:20:30.393Z,7.03
2023-04-02T12:23:19.949Z,6.96
2023-04-02T12:26:08.281Z,7.22
2023-04-02T12:28:53.282Z,7.18
2023-04-02T12:31:43.330Z,7.06
2023-04-02T12:34:30.023Z,7.07
2023-04-02T12:37:29.749Z,7.65
2023-04-02T12:40:18.618Z,7.40
2023-04-02T12:43:03.654Z,7.50
2023-04-02T12:45:52.896Z,7.33
2023-04-02T12:48:38.240Z,7.30
2023-04-02T12:51:23.414Z,7.25
2023-04-02T12:54:17.220Z,7.27
2023-04-02T12:57:27.057Z,7.16
2023-04-02T13:00:21.124Z,7.21
2023-04-02T13:03:05.991Z,6.88
2023-04-02T13:05:55.014Z,6.90
2023-04-02T13:08:43.304Z,6.80
2023-04-02T13:11:54.566Z,6.84
2023-04-02T13:14:39.605Z,6.88
2023-04-02T13:17:40.697Z,7.18
2023-04-02T13:20:32.151Z,6.92
2023-04-02T13:23:29.479Z,6.71
2023-04-02T13:26:24.849Z,6.78
2023-04-02T13:29:28.226Z,6.87
2023-04-02T13:32:13.428Z,6.90
2023-04-02T13:34:58.347Z,7.28
2023-04-02T13:37:43.664Z,6.93
2023-04-02T13:40:28.707Z,7.08
2023-04-02T13:43:20.514Z,6.92
2023-04-02T13:46:06.976Z,7.32
2023-04-02T13:48:54.333Z,6.99
2023-04-02T13:51:44.364Z,6.90
2023-04-02T13:54:38.745Z,7.13
2023-04-02T13:57:23.648Z,6.97
2023-04-02T14:00:10.228Z,7.03
2023-04-02T14:03:04.300Z,7.05
2023-04-02T14:06:08.240Z,7.20
2023-04-02T14:09:04.155Z,7.32
2023-04-02T14:12:13.310Z,7.09
2023-04-02T14:15:20.366Z,7.18
2023-04-02T14:18:36.542Z,7.12
2023-04-02T14:21:51.668Z,7.24
2023-04-02T14:24:39.290Z,7.12
2023-04-02T14:27:56.429Z,7.44
2023-04-02T14:30:58.830Z,7.33
2023-04-02T14:34:08.521Z,7.19
2023-04-02T14:37:13.798Z,7.12
2023-04-02T14:40:27.069Z,7.23
2023-04-02T14:43:26.097Z,7.17
2023-04-02T14:46:11.493Z,7.11
2023-04-02T14:49:03.811Z,6.97
2023-04-02T14:51:53.630Z,7.15
2023-04-02T14:54:55.201Z,6.91
2023-04-02T14:57:51.222Z,7.09
2023-04-02T15:00:50.553Z,6.99
2023-04-02T15:03:44.028Z,7.00
2023-04-02T15:06:52.879Z,6.79
2023-04-02T15:09:44.706Z,6.79
2023-04-02T15:12:35.815Z,6.77
2023-04-02T15:15:42.841Z,6.63
2023-04-02T15:18:27.856Z,6.60
2023-04-02T15:21:29.399Z,6.67
2023-04-02T15:24:17.136Z,6.62
2023-04-02T15:27:24.564Z,6.58
2023-04-02T15:30:20.067Z,6.57
2023-04-02T15:33:32.310Z,6.55
2023-04-02T15:36:26.564Z,6.66
2023-04-02T15:39:35.840Z,6.48
2023-04-02T15:42:32.946Z,6.45
2023-04-02T15:45:20.989Z,6.39
2023-04-02T15:48:34.437Z,6.37
2023-04-02T15:51:31.762Z,6.31
2023-04-02T15:54:37.834Z,6.35
2023-04-02T15:57:44.795Z,6.28
2023-04-02T16:00:31.803Z,6.37
2023-04-02T16:03:43.081Z,6.47
2023-04-02T16:06:56.423Z,6.38
2023-04-02T16:09:52.642Z,6.42
2023-04-02T16:12:40.846Z,6.22
2023-04-02T16:15:40.061Z,6.24
2023-04-02T16:18:51.175Z,6.27
2023-04-02T16:21:50.372Z,6.22
2023-04-02T16:24:35.379Z,6.28
2023-04-02T16:27:33.111Z,6.25
2023-04-02T16:30:31.449Z,6.24
2023-04-02T16:33:28.120Z,6.24
2023-04-02T16:36:37.776Z,6.22
2023-04-02T16:39:51.234Z,6.17
2023-04-02T16:43:05.163Z,6.16
2023-04-02T16:46:05.495Z,6.21
2023-04-02T16:48:58.393Z,6.04
2023-04-02T16:52:19.833Z,6.12
2023-04-02T16:55:23.325Z,6.06
2023-04-02T16:58:22.971Z,6.04
2023-04-02T17:01:20.846Z,6.11
2023-04-02T17:04:14.856Z,6.08
2023-04-02T17:07:14.986Z,6.12
2023-04-02T17:10:26.710Z,6.17
2023-04-02T17:13:17.557Z,6.10
2023-04-02T17:16:08.519Z,6.19
2023-04-02T17:18:57.877Z,6.07
2023-04-02T17:21:52.743Z,6.13
2023-04-02T17:24:45.580Z,6.08
2023-04-02T17:27:43.282Z,6.04
2023-04-02T17:30:43.096Z,6.18
2023-04-02T17:33:28.426Z,6.13
2023-04-02T17:36:25.978Z,6.06
2023-04-02T17:39:20.136Z,6.00
2023-04-02T17:42:15.678Z,5.99
2023-04-02T17:45:14.784Z,5.97
2023-04-02T17:48:17.041Z,5.96
2023-04-02T17:51:34.037Z,6.02
2023-04-02T17:54:30.671Z,6.08
2023-04-02T17:57:34.354Z,6.03
2023-04-02T18:00:36.232Z,5.99
2023-04-02T18:03:38.422Z,6.02
2023-04-02T18:06:43.318Z,6.01
2023-04-02T18:09:50.112Z,6.01
2023-04-02T18:12:56.997Z,5.98
2023-04-02T18:16:01.894Z,6.01
2023-04-02T18:19:05.791Z,5.98
2023-04-02T18:22:12.482Z,6.03
2023-04-02T18:25:19.765Z,5.95
2023-04-02T18:28:20.830Z,5.95
2023-04-02T18:31:26.899Z,6.01
2023-04-02T18:34:29.686Z,5.98
2023-04-02T18:37:38.603Z,6.00
2023-04-02T18:40:49.534Z,5.94
2023-04-02T18:43:43.690Z,5.98
2023-04-02T18:46:50.264Z,5.96
2023-04-02T18:49:39.230Z,5.97
2023-04-02T18:52:24.798Z,5.92
2023-04-02T18:55:33.061Z,5.89
2023-04-02T18:58:26.670Z,5.92
2023-04-02T19:01:22.271Z,5.87
2023-04-02T19:04:17.609Z,5.89
2023-04-02T19:07:21.323Z,5.90
2023-04-02T19:10:21.366Z,5.95
2023-04-02T19:13:18.074Z,6.02
2023-04-02T19:16:36.781Z,5.99
2023-04-02T19:19:27.833Z,6.03
2023-04-02T19:22:23.376Z,6.02
2023-04-02T19:25:41.488Z,5.98
2023-04-02T19:28:37.925Z,5.96
2023-04-02T19:31:35.324Z,5.85
2023-04-02T19:34:46.075Z,5.82
2023-04-02T19:37:42.720Z,5.83
2023-04-02T19:40:42.516Z,5.77
2023-04-02T19:43:27.428Z,5.74
2023-04-02T19:46:12.289Z,5.70
2023-04-02T19:49:03.466Z,5.71
2023-04-02T19:51:51.801Z,5.65
2023-04-02T19:54:38.364Z,5.69
2023-04-02T19:57:23.699Z,5.59
2023-04-02T20:00:13.348Z,5.57
2023-04-02T20:02:58.509Z,5.55
2023-04-02T20:05:43.855Z,5.48
2023-04-02T20:08:29.118Z,5.50
2023-04-02T20:11:14.441Z,5.44
2023-04-02T20:13:59.166Z,5.46
2023-04-02T20:16:45.706Z,5.45
2023-04-02T20:19:30.734Z,5.47
2023-04-02T20:22:15.925Z,5.41
2023-04-02T20:25:01.222Z,5.38
2023-04-02T20:27:46.520Z,5.39
2023-04-02T20:30:32.440Z,5.39
2023-04-02T20:33:19.356Z,5.41
2023-04-02T20:36:10.636Z,5.36
2023-04-02T20:38:55.713Z,5.35
2023-04-02T20:41:40.739Z,5.37
2023-04-02T20:44:26.802Z,5.33
2023-04-02T20:47:12.097Z,5.33
2023-04-02T20:49:56.880Z,5.30
2023-04-02T20:52:41.672Z,5.30
2023-04-02T20:55:26.808Z,5.28
2023-04-02T20:58:14.139Z,5.27
2023-04-02T21:01:09.857Z,5.29
2023-04-02T21:04:00.483Z,5.33
2023-04-02T21:06:45.215Z,5.31
2023-04-02T21:09:30.544Z,5.29
2023-04-02T21:12:15.856Z,5.14
2023-04-02T21:15:02.691Z,5.09
2023-04-02T21:17:48.107Z,5.06
2023-04-02T21:20:32.779Z,5.03
2023-04-02T21:23:17.771Z,4.99
2023-04-02T21:26:06.102Z,4.97
2023-04-02T21:28:51.177Z,4.97
2023-04-02T21:31:37.907Z,4.91
2023-04-02T21:34:23.042Z,4.83
2023-04-02T21:37:07.883Z,4.77
2023-04-02T21:39:53.162Z,4.74
2023-04-02T21:42:38.310Z,4.75
2023-04-02T21:45:23.121Z,4.70
2023-04-02T21:48:07.890Z,4.66
2023-04-02T21:50:53.024Z,4.57
2023-04-02T21:53:38.630Z,4.52
2023-04-02T21:56:27.983Z,4.37
2023-04-02T21:59:15.158Z,4.21
2023-04-02T22:02:00.418Z,4.26
2023-04-02T22:04:45.161Z,4.32
2023-04-02T22:07:30.873Z,4.32
2023-04-02T22:10:15.784Z,4.29
2023-04-02T22:13:01.007Z,4.23
2023-04-02T22:15:45.873Z,4.14
2023-04-02T22:18:31.100Z,3.95
2023-04-02T22:21:16.965Z,4.08
2023-04-02T22:24:03.851Z,4.01
2023-04-02T22:26:49.009Z,3.85
2023-04-02T22:29:34.106Z,3.74
2023-04-02T22:32:18.858Z,3.85
2023-04-02T22:35:03.824Z,3.94
2023-04-02T22:37:48.609Z,3.93
2023-04-02T22:40:33.542Z,3.86
2023-04-02T22:43:18.431Z,3.95
2023-04-02T22:46:05.008Z,3.84
2023-04-02T22:48:50.605Z,3.83
2023-04-02T22:51:36.124Z,3.91
2023-04-02T22:54:21.334Z,4.03
2023-04-02T22:57:06.608Z,4.01
2023-04-02T22:59:51.595Z,3.98
2023-04-02T23:02:36.935Z,4.09
2023-04-02T23:05:22.192Z,4.15
2023-04-02T23:08:07.024Z,4.21
2023-04-02T23:10:51.850Z,4.21
2023-04-02T23:13:37.663Z,4.21
2023-04-02T23:16:24.197Z,4.41
2023-04-02T23:19:09.118Z,4.52
2023-04-02T23:21:53.998Z,4.55
2023-04-02T23:24:38.813Z,4.49
2023-04-02T23:27:24.003Z,4.46
2023-04-02T23:30:09.723Z,4.44
2023-04-02T23:32:54.980Z,4.50
2023-04-02T23:35:39.747Z,4.58
2023-04-02T23:38:25.680Z,4.63
2023-04-02T23:41:14.435Z,4.59
2023-04-02T23:43:59.857Z,4.54
2023-04-02T23:46:44.805Z,4.50
2023-04-02T23:49:29.799Z,4.50
2023-04-02T23:52:15.325Z,4.50
2023-04-02T23:55:00.193Z,4.49
2023-04-02T23:57:45.248Z,4.48
